Time;durP1;ratioP1;P1;durP2;ratioP2;P2;SDS_P1;SDS_P2;PMS_P1;PMS_P2;Temp;Humidity;BMP_temperature;BMP_pressure;BME280_temperature;BME280_humidity;BME280_pressure;Samples;Min_cycle;Max_cycle;Signal;HPM_P1;HPM_P2
2020/12/27 00:00:18;;;;;;;2.10;1.10;;;4.40;99.90;;;;;;4992851;28;20760;-76
2020/12/27 00:02:44;;;;;;;1.13;1.00;;;4.40;99.90;;;;;;4991558;28;20194;-76
2020/12/27 00:05:10;;;;;;;0.83;0.83;;;4.40;99.90;;;;;;4975139;28;20217;-76
2020/12/27 00:07:36;;;;;;;1.30;1.00;;;4.40;99.90;;;;;;4992929;28;20414;-76
2020/12/27 00:10:04;;;;;;;1.58;0.90;;;4.40;99.90;;;;;;4992324;28;20495;-76
2020/12/27 00:12:30;;;;;;;2.15;1.20;;;4.50;99.90;;;;;;4992412;28;20289;-76
2020/12/27 00:14:56;;;;;;;1.30;0.97;;;4.50;99.90;;;;;;4992068;28;20254;-77
2020/12/27 00:17:21;;;;;;;1.20;1.10;;;4.50;99.90;;;;;;4992474;28;20464;-76
2020/12/27 00:19:47;;;;;;;1.27;0.80;;;4.50;99.90;;;;;;4992432;28;20166;-77
2020/12/27 00:22:14;;;;;;;0.83;0.70;;;4.50;99.90;;;;;;4991992;28;20293;-76
2020/12/27 00:24:40;;;;;;;0.98;0.80;;;4.60;99.90;;;;;;4992146;28;20182;-76
2020/12/27 00:27:05;;;;;;;1.00;0.90;;;4.60;99.90;;;;;;4991926;28;20210;-76
2020/12/27 00:29:31;;;;;;;1.27;0.80;;;4.50;99.90;;;;;;4992309;28;20249;-76
2020/12/27 00:31:57;;;;;;;0.73;0.60;;;4.50;99.90;;;;;;4991503;28;20512;-76
2020/12/27 00:34:24;;;;;;;1.60;0.87;;;4.50;99.90;;;;;;4992199;28;20707;-77
2020/12/27 00:36:50;;;;;;;0.95;0.70;;;4.50;99.90;;;;;;4973754;28;20214;-77
2020/12/27 00:39:21;;;;;;;2.08;0.73;;;4.50;99.90;;;;;;4992055;28;20166;-77
2020/12/27 00:41:47;;;;;;;1.23;0.85;;;4.40;99.90;;;;;;4991245;28;20202;-76
2020/12/27 00:44:13;;;;;;;1.05;0.80;;;4.40;99.90;;;;;;4991883;28;20167;-76
2020/12/27 00:46:38;;;;;;;0.70;0.47;;;4.50;99.90;;;;;;4973613;28;20625;-76
2020/12/27 00:49:04;;;;;;;0.83;0.63;;;4.50;99.90;;;;;;4991994;28;20660;-77
2020/12/27 00:51:30;;;;;;;1.73;0.73;;;4.50;99.90;;;;;;4991246;28;20198;-77
2020/12/27 00:53:55;;;;;;;0.70;0.70;;;4.50;99.90;;;;;;4992203;28;20204;-77
2020/12/27 00:56:22;;;;;;;0.90;0.70;;;4.50;99.90;;;;;;4973792;28;20233;-76
2020/12/27 00:58:47;;;;;;;0.87;0.60;;;4.50;99.90;;;;;;4974747;28;20645;-77
2020/12/27 01:01:14;;;;;;;0.80;0.80;;;4.50;99.90;;;;;;4991080;28;20460;-76
2020/12/27 01:03:41;;;;;;;0.98;0.70;;;4.50;99.90;;;;;;4992051;28;20213;-77
2020/12/27 01:06:06;;;;;;;1.30;1.20;;;4.60;99.90;;;;;;4973644;28;20198;-77
2020/12/27 01:08:32;;;;;;;0.80;0.60;;;4.50;99.90;;;;;;4991478;28;20668;-77
2020/12/27 01:11:02;;;;;;;1.43;0.90;;;4.60;99.90;;;;;;4991302;28;20227;-76
2020/12/27 01:13:28;;;;;;;1.20;0.55;;;4.60;99.90;;;;;;4991751;28;20214;-76
2020/12/27 01:15:54;;;;;;;0.60;0.40;;;4.60;99.90;;;;;;4991160;28;20720;-76
2020/12/27 01:18:20;;;;;;;4.93;0.67;;;4.60;99.90;;;;;;4973889;28;20485;-76
2020/12/27 01:20:46;;;;;;;0.63;0.60;;;4.60;99.90;;;;;;4990979;28;20849;-76
2020/12/27 01:23:12;;;;;;;0.75;0.75;;;4.50;99.90;;;;;;4991805;28;20191;-76
2020/12/27 01:25:37;;;;;;;1.00;0.67;;;4.60;99.90;;;;;;4990692;28;20282;-76
2020/12/27 01:28:03;;;;;;;1.43;0.60;;;4.50;99.90;;;;;;4991690;28;20199;-77
2020/12/27 01:30:29;;;;;;;0.70;0.67;;;4.50;99.90;;;;;;4990825;28;20206;-76
2020/12/27 01:32:55;;;;;;;0.73;0.60;;;4.50;99.90;;;;;;4992445;28;20505;-76
2020/12/27 01:35:20;;;;;;;0.80;0.70;;;4.60;99.90;;;;;;4991717;28;20198;-76
2020/12/27 01:37:46;;;;;;;1.40;0.50;;;4.60;99.90;;;;;;4991995;28;20500;-76
2020/12/27 01:40:12;;;;;;;1.00;0.73;;;4.60;99.90;;;;;;4993068;28;20209;-76
2020/12/27 01:42:38;;;;;;;1.40;0.70;;;4.60;99.90;;;;;;4994065;28;20198;-77
2020/12/27 01:45:05;;;;;;;2.30;0.60;;;4.70;99.90;;;;;;4977089;28;20166;-77
2020/12/27 01:47:34;;;;;;;0.50;0.40;;;4.70;99.90;;;;;;4995385;28;20174;-76
2020/12/27 01:50:01;;;;;;;1.13;0.52;;;4.70;99.90;;;;;;4994977;28;20185;-76
2020/12/27 01:52:27;;;;;;;6.95;0.98;;;4.60;99.90;;;;;;4977371;28;20530;-76
2020/12/27 01:54:53;;;;;;;1.47;0.70;;;4.70;99.90;;;;;;4994114;28;20549;-76
2020/12/27 01:57:27;;;;;;;0.90;0.60;;;4.70;99.90;;;;;;4995033;28;20660;-76
2020/12/27 01:59:52;;;;;;;0.70;0.60;;;4.60;99.90;;;;;;4994685;28;20468;-76
2020/12/27 02:02:19;;;;;;;0.80;0.80;;;4.60;99.90;;;;;;4994956;28;20187;-77
2020/12/27 02:04:45;;;;;;;0.80;0.40;;;4.60;99.90;;;;;;4995102;28;20174;-76
2020/12/27 02:07:12;;;;;;;0.98;0.40;;;4.60;99.90;;;;;;4996790;28;20206;-76
2020/12/27 02:09:41;;;;;;;0.60;0.50;;;4.60;99.90;;;;;;4995747;28;20229;-76
2020/12/27 02:12:11;;;;;;;0.80;0.60;;;4.60;99.90;;;;;;4994732;28;20214;-76
2020/12/27 02:14:38;;;;;;;0.60;0.50;;;4.60;99.90;;;;;;4979310;28;20178;-75
2020/12/27 02:17:05;;;;;;;0.95;0.70;;;4.60;99.90;;;;;;4994893;28;20590;-75
2020/12/27 02:19:31;;;;;;;1.15;0.60;;;4.60;99.90;;;;;;4995495;28;20764;-76
2020/12/27 02:21:57;;;;;;;1.57;0.57;;;4.50;99.90;;;;;;4976478;28;20301;-76
2020/12/27 02:24:23;;;;;;;0.75;0.45;;;4.50;99.90;;;;;;4977784;28;20170;-75
2020/12/27 02:27:08;;;;;;;0.82;0.50;;;4.50;99.90;;;;;;4994602;28;20212;-75
2020/12/27 02:29:36;;;;;;;0.80;0.47;;;4.60;99.90;;;;;;4995296;28;20162;-76
2020/12/27 02:32:02;;;;;;;0.82;0.40;;;4.60;99.90;;;;;;4995124;28;20693;-76
2020/12/27 02:34:28;;;;;;;0.70;0.55;;;4.60;99.90;;;;;;4995797;28;20536;-75
2020/12/27 02:36:54;;;;;;;0.90;0.50;;;4.50;99.90;;;;;;4994058;28;20301;-75
2020/12/27 02:39:20;;;;;;;1.33;0.60;;;4.50;99.90;;;;;;4995549;28;20622;-76
2020/12/27 02:41:51;;;;;;;1.02;0.60;;;4.40;99.90;;;;;;4993865;28;20230;-76
2020/12/27 02:44:17;;;;;;;0.65;0.52;;;4.40;99.90;;;;;;4975548;28;20163;-76
2020/12/27 02:46:43;;;;;;;0.80;0.60;;;4.40;99.90;;;;;;4988479;28;20217;-76
2020/12/27 02:49:09;;;;;;;0.63;0.43;;;4.40;99.90;;;;;;4995099;28;20246;-76
2020/12/27 02:51:34;;;;;;;0.93;0.77;;;4.40;99.90;;;;;;4993966;28;20210;-75
2020/12/27 02:54:00;;;;;;;0.80;0.60;;;4.40;99.90;;;;;;4995053;28;20541;-75
2020/12/27 02:56:28;;;;;;;1.15;1.05;;;4.50;99.90;;;;;;4995158;28;20577;-76
2020/12/27 02:59:02;;;;;;;0.90;0.55;;;4.50;99.90;;;;;;4977669;28;20621;-76
2020/12/27 03:01:28;;;;;;;1.15;0.60;;;4.40;99.90;;;;;;4994458;28;20253;-76
2020/12/27 03:03:53;;;;;;;0.70;0.60;;;4.50;99.90;;;;;;4994369;28;20522;-76
2020/12/27 03:06:19;;;;;;;1.10;0.50;;;4.50;99.90;;;;;;4993976;28;20206;-76
2020/12/27 03:08:54;;;;;;;0.67;0.50;;;4.50;99.90;;;;;;4993707;28;20185;-76
2020/12/27 03:11:24;;;;;;;0.50;0.50;;;4.50;99.90;;;;;;4994226;28;20672;-76
2020/12/27 03:13:50;;;;;;;0.95;0.80;;;4.40;99.90;;;;;;4994776;28;20285;-76
2020/12/27 03:16:16;;;;;;;0.80;0.70;;;4.40;99.90;;;;;;4992517;28;20222;-77
2020/12/27 03:18:42;;;;;;;0.73;0.50;;;4.40;99.90;;;;;;4994563;28;20167;-76
2020/12/27 03:21:07;;;;;;;0.60;0.40;;;4.40;99.90;;;;;;4976483;28;20453;-76
2020/12/27 03:23:33;;;;;;;0.70;0.63;;;4.40;99.90;;;;;;4994450;28;20193;-76
2020/12/27 03:25:59;;;;;;;0.63;0.43;;;4.40;99.90;;;;;;4975121;28;20230;-75
2020/12/27 03:28:24;;;;;;;0.60;0.50;;;4.40;99.90;;;;;;4994001;28;20214;-76
2020/12/27 03:30:50;;;;;;;0.87;0.40;;;4.40;99.90;;;;;;4992962;28;20241;-76
2020/12/27 03:33:16;;;;;;;0.70;0.53;;;4.40;99.90;;;;;;4994303;28;20190;-76
2020/12/27 03:35:41;;;;;;;0.83;0.53;;;4.40;99.90;;;;;;4997572;28;20212;-76
2020/12/27 03:38:07;;;;;;;0.60;0.40;;;4.40;99.90;;;;;;5013746;28;20166;-75
2020/12/27 03:40:33;;;;;;;0.63;0.40;;;4.40;99.90;;;;;;5000608;28;20213;-76
2020/12/27 03:42:58;;;;;;;0.67;0.40;;;4.40;99.90;;;;;;4993412;28;20222;-76
2020/12/27 03:45:25;;;;;;;0.60;0.30;;;4.40;99.90;;;;;;4975275;28;20518;-76
2020/12/27 03:47:51;;;;;;;1.35;0.60;;;4.40;99.90;;;;;;4975709;28;20499;-76
2020/12/27 03:50:16;;;;;;;0.67;0.57;;;4.40;99.90;;;;;;4993522;28;20205;-76
2020/12/27 03:52:42;;;;;;;0.60;0.40;;;4.40;99.90;;;;;;4976375;28;20240;-76
2020/12/27 03:55:08;;;;;;;0.50;0.30;;;4.40;99.90;;;;;;4993339;28;20506;-76
2020/12/27 03:57:33;;;;;;;0.50;0.30;;;4.40;99.90;;;;;;4993462;28;20527;-76
2020/12/27 04:00:03;;;;;;;1.27;0.30;;;4.40;99.90;;;;;;4993366;28;20221;-76
2020/12/27 04:02:28;;;;;;;0.55;0.40;;;4.40;99.90;;;;;;4992774;28;20273;-76
2020/12/27 04:04:54;;;;;;;0.60;0.43;;;4.40;99.90;;;;;;4992217;28;20217;-76
2020/12/27 04:07:20;;;;;;;0.50;0.30;;;4.40;99.90;;;;;;4993217;28;20585;-76
2020/12/27 04:09:45;;;;;;;0.70;0.40;;;4.40;99.90;;;;;;4993556;28;20202;-75
2020/12/27 04:12:13;;;;;;;0.50;0.40;;;4.40;99.90;;;;;;4992766;28;20576;-76
2020/12/27 04:14:39;;;;;;;0.50;0.38;;;4.40;99.90;;;;;;4993878;28;20574;-75
2020/12/27 04:17:05;;;;;;;0.50;0.30;;;4.40;99.90;;;;;;4993332;28;20225;-76
2020/12/27 04:19:31;;;;;;;1.90;1.17;;;4.40;99.90;;;;;;4994075;28;20225;-76
2020/12/27 04:21:57;;;;;;;0.63;0.40;;;4.40;99.90;;;;;;4993252;28;20206;-76
2020/12/27 04:24:22;;;;;;;0.77;0.30;;;4.40;99.90;;;;;;4993246;28;20170;-76
2020/12/27 04:26:48;;;;;;;0.60;0.30;;;4.40;99.90;;;;;;4992065;28;20215;-76
2020/12/27 04:29:14;;;;;;;0.70;0.40;;;4.40;99.90;;;;;;4993168;28;20213;-76
2020/12/27 04:31:40;;;;;;;1.17;0.40;;;4.50;99.90;;;;;;4992759;28;20452;-76
2020/12/27 04:34:05;;;;;;;0.93;0.30;;;4.50;99.90;;;;;;4993998;28;20181;-76
2020/12/27 04:36:31;;;;;;;0.50;0.30;;;4.50;99.90;;;;;;4975018;28;20301;-76
2020/12/27 04:38:58;;;;;;;1.20;0.40;;;4.60;99.90;;;;;;4993324;28;20179;-76
2020/12/27 04:41:24;;;;;;;0.40;0.20;;;4.60;99.90;;;;;;4974526;28;20676;-76
2020/12/27 04:43:50;;;;;;;0.50;0.40;;;4.60;99.90;;;;;;4992935;28;20278;-75
2020/12/27 04:46:17;;;;;;;0.50;0.30;;;4.60;99.90;;;;;;4992182;28;20206;-76
2020/12/27 04:48:44;;;;;;;2.55;0.30;;;4.50;99.90;;;;;;4992879;28;20414;-76
2020/12/27 04:51:11;;;;;;;0.40;0.30;;;4.50;99.90;;;;;;4992878;28;20206;-76
2020/12/27 04:53:38;;;;;;;0.50;0.35;;;4.60;99.90;;;;;;4992913;28;20572;-76
2020/12/27 04:56:07;;;;;;;0.50;0.40;;;4.60;99.90;;;;;;4974962;28;20222;-76
2020/12/27 04:58:32;;;;;;;0.50;0.30;;;4.60;99.90;;;;;;4993151;28;20178;-76
2020/12/27 05:01:00;;;;;;;0.53;0.30;;;4.60;99.90;;;;;;4992308;28;20676;-76
2020/12/27 05:03:26;;;;;;;1.10;0.40;;;4.70;99.90;;;;;;4992343;28;20277;-76
2020/12/27 05:05:53;;;;;;;0.50;0.30;;;4.70;99.90;;;;;;4991855;28;20677;-76
2020/12/27 05:08:19;;;;;;;0.40;0.30;;;4.70;99.90;;;;;;4992522;28;20234;-76
2020/12/27 05:10:46;;;;;;;0.47;0.30;;;4.70;99.90;;;;;;4974460;28;20217;-76
2020/12/27 05:13:13;;;;;;;0.40;0.28;;;4.70;99.90;;;;;;4992731;28;20190;-76
2020/12/27 05:15:40;;;;;;;0.40;0.30;;;4.70;99.90;;;;;;4991401;28;20280;-76
2020/12/27 05:18:06;;;;;;;0.50;0.40;;;4.70;99.90;;;;;;4977577;28;20167;-76
2020/12/27 05:20:33;;;;;;;0.65;0.30;;;4.70;99.90;;;;;;4996709;28;20207;-76
2020/12/27 05:23:01;;;;;;;0.50;0.30;;;4.70;99.90;;;;;;4996460;28;20586;-76
2020/12/27 05:25:29;;;;;;;0.55;0.30;;;4.70;99.90;;;;;;4996372;28;20222;-76
2020/12/27 05:28:00;;;;;;;1.15;0.40;;;4.80;99.90;;;;;;4996590;28;20198;-75
2020/12/27 05:30:28;;;;;;;0.70;0.40;;;4.70;99.90;;;;;;4996690;28;20319;-76
2020/12/27 05:32:54;;;;;;;0.40;0.30;;;4.70;99.90;;;;;;4980340;28;20201;-76
2020/12/27 05:35:20;;;;;;;0.50;0.30;;;4.80;99.90;;;;;;4996159;28;20214;-76
2020/12/27 05:37:48;;;;;;;0.60;0.30;;;4.70;99.90;;;;;;4998347;28;20681;-76
2020/12/27 05:40:15;;;;;;;0.50;0.40;;;4.70;99.90;;;;;;5005262;28;20218;-76
2020/12/27 05:42:41;;;;;;;0.80;0.30;;;4.80;99.90;;;;;;5002910;28;20657;-76
2020/12/27 05:45:18;;;;;;;0.43;0.30;;;4.80;99.90;;;;;;4979505;28;20174;-76
2020/12/27 05:47:45;;;;;;;0.50;0.30;;;4.80;99.90;;;;;;4997782;28;20942;-76
2020/12/27 05:50:13;;;;;;;0.80;0.38;;;4.80;99.90;;;;;;4996488;28;20213;-76
2020/12/27 05:52:47;;;;;;;1.58;0.30;;;4.80;99.90;;;;;;4984394;28;20198;-76
2020/12/27 05:55:22;;;;;;;0.50;0.30;;;4.80;99.90;;;;;;4978317;28;20233;-75
2020/12/27 05:57:51;;;;;;;0.50;0.30;;;4.80;99.90;;;;;;4996549;28;20206;-76
2020/12/27 06:00:19;;;;;;;0.70;0.38;;;4.80;99.90;;;;;;4995604;28;20210;-76
2020/12/27 06:02:45;;;;;;;1.85;0.30;;;4.80;99.90;;;;;;4996327;28;20201;-75
2020/12/27 06:05:13;;;;;;;0.50;0.30;;;4.80;99.90;;;;;;4995097;28;20264;-76
2020/12/27 06:07:45;;;;;;;0.60;0.30;;;4.80;99.90;;;;;;4978359;28;20190;-76
2020/12/27 06:10:16;;;;;;;0.60;0.30;;;4.80;99.90;;;;;;4977066;28;20210;-76
2020/12/27 06:13:12;;;;;;;0.60;0.40;;;4.80;99.90;;;;;;4991022;28;20677;-76
2020/12/27 06:15:46;;;;;;;0.50;0.30;;;4.80;99.90;;;;;;4994961;28;20223;-76
2020/12/27 06:18:17;;;;;;;0.60;0.30;;;4.80;99.90;;;;;;4977630;28;20189;-75
2020/12/27 06:20:44;;;;;;;0.40;0.20;;;4.80;99.90;;;;;;4977682;28;20211;-76
2020/12/27 06:23:11;;;;;;;0.50;0.30;;;4.80;99.90;;;;;;4995706;28;20205;-75
2020/12/27 06:25:38;;;;;;;1.83;0.30;;;4.90;99.90;;;;;;4995109;28;20214;-75
2020/12/27 06:28:04;;;;;;;0.55;0.35;;;4.90;99.90;;;;;;4977678;28;20441;-76
2020/12/27 06:30:32;;;;;;;3.83;0.30;;;5.00;99.90;;;;;;4995639;28;20202;-76
2020/12/27 06:33:21;;;;;;;0.70;0.40;;;5.00;99.90;;;;;;4996251;28;20190;-76
2020/12/27 06:35:47;;;;;;;0.80;0.50;;;5.00;99.90;;;;;;4994622;28;20217;-76
2020/12/27 06:38:18;;;;;;;0.50;0.30;;;5.00;99.90;;;;;;4995447;28;20159;-76
2020/12/27 06:40:46;;;;;;;0.75;0.30;;;5.00;99.90;;;;;;4995426;28;20210;-76
2020/12/27 06:43:19;;;;;;;0.50;0.30;;;5.00;99.90;;;;;;4978311;28;20568;-75
2020/12/27 06:45:45;;;;;;;0.75;0.30;;;5.00;99.90;;;;;;4976568;28;20206;-76
2020/12/27 06:48:29;;;;;;;1.60;0.40;;;5.10;99.90;;;;;;4995620;28;20181;-75
2020/12/27 06:50:54;;;;;;;0.50;0.30;;;5.10;99.90;;;;;;4977364;28;20207;-76
2020/12/27 06:53:49;;;;;;;0.50;0.20;;;5.10;99.90;;;;;;4996225;28;20197;-75
2020/12/27 06:56:15;;;;;;;0.50;0.30;;;5.00;99.90;;;;;;4977354;28;20701;-76
2020/12/27 06:58:59;;;;;;;0.63;0.30;;;5.00;99.90;;;;;;4995417;28;20169;-76
2020/12/27 07:01:25;;;;;;;0.50;0.40;;;5.00;99.90;;;;;;4994673;28;20210;-75
2020/12/27 07:04:16;;;;;;;0.40;0.30;;;5.00;99.90;;;;;;4993952;28;20695;-75
2020/12/27 07:06:43;;;;;;;0.50;0.30;;;5.10;99.90;;;;;;4976561;28;20206;-75
2020/12/27 07:09:09;;;;;;;0.82;0.47;;;5.00;99.90;;;;;;4995368;28;20175;-75
2020/12/27 07:11:35;;;;;;;0.70;0.40;;;5.00;99.90;;;;;;4995395;28;20246;-76
2020/12/27 07:14:02;;;;;;;0.60;0.37;;;5.10;99.90;;;;;;4995167;28;20213;-77
2020/12/27 07:16:48;;;;;;;1.35;0.50;;;5.10;99.90;;;;;;4992635;28;20518;-75
2020/12/27 07:19:17;;;;;;;0.60;0.40;;;5.00;99.90;;;;;;4995239;28;20163;-75
2020/12/27 07:21:56;;;;;;;0.50;0.30;;;5.10;99.90;;;;;;4993294;28;20209;-75
2020/12/27 07:24:25;;;;;;;0.40;0.30;;;5.10;99.90;;;;;;4974486;28;20186;-75
2020/12/27 07:26:51;;;;;;;0.60;0.32;;;5.10;99.90;;;;;;4969602;28;20225;-76
2020/12/27 07:29:20;;;;;;;0.50;0.30;;;5.10;99.90;;;;;;4996460;28;20229;-75
2020/12/27 07:31:47;;;;;;;0.50;0.50;;;5.10;99.90;;;;;;4994292;28;20286;-77
2020/12/27 07:34:16;;;;;;;0.40;0.30;;;5.10;99.90;;;;;;4995418;28;20171;-76
2020/12/27 07:36:42;;;;;;;0.93;0.40;;;5.10;99.90;;;;;;4993234;28;20272;-76
2020/12/27 07:39:10;;;;;;;0.70;0.50;;;5.10;99.90;;;;;;4995473;28;20177;-77
2020/12/27 07:41:42;;;;;;;1.73;0.50;;;5.10;99.90;;;;;;4992652;28;20293;-76
2020/12/27 07:44:12;;;;;;;1.02;0.32;;;5.20;99.90;;;;;;4994477;28;20166;-76
2020/12/27 07:46:38;;;;;;;0.82;0.50;;;5.10;99.90;;;;;;4975470;28;20280;-76
2020/12/27 07:49:08;;;;;;;0.50;0.45;;;5.20;99.90;;;;;;4971579;23;20223;-77
2020/12/27 07:51:35;;;;;;;0.75;0.40;;;5.20;99.90;;;;;;4974920;28;20211;-76
2020/12/27 07:54:05;;;;;;;1.42;0.50;;;5.20;99.90;;;;;;4974249;28;20168;-77
2020/12/27 07:56:32;;;;;;;0.60;0.40;;;5.20;99.90;;;;;;4973790;28;20230;-77
2020/12/27 07:59:02;;;;;;;0.90;0.50;;;5.20;99.90;;;;;;4974183;28;20542;-77
2020/12/27 08:01:28;;;;;;;0.85;0.40;;;5.20;99.90;;;;;;4974327;28;20218;-76
2020/12/27 08:04:05;;;;;;;0.67;0.50;;;5.10;99.90;;;;;;4974623;28;20187;-76
2020/12/27 08:06:33;;;;;;;1.77;0.47;;;5.20;99.90;;;;;;4974527;28;20554;-76
2020/12/27 08:09:01;;;;;;;0.50;0.30;;;5.20;99.90;;;;;;4974212;28;20198;-76
2020/12/27 08:11:27;;;;;;;0.70;0.52;;;5.20;99.90;;;;;;4974742;28;20302;-76
2020/12/27 08:13:56;;;;;;;1.15;0.50;;;5.20;99.90;;;;;;4974610;28;20199;-76
2020/12/27 08:16:22;;;;;;;0.50;0.35;;;5.20;99.90;;;;;;4974569;28;20215;-76
2020/12/27 08:18:59;;;;;;;1.70;0.85;;;5.20;99.90;;;;;;4974859;28;20163;-76
2020/12/27 08:21:25;;;;;;;0.60;0.50;;;5.20;99.90;;;;;;4974714;28;20203;-76
2020/12/27 08:24:04;;;;;;;0.87;0.50;;;5.20;99.90;;;;;;4972525;28;20195;-76
2020/12/27 08:26:31;;;;;;;1.35;0.47;;;5.20;99.90;;;;;;4972023;28;20291;-77
2020/12/27 08:29:23;;;;;;;0.80;0.50;;;5.20;99.90;;;;;;4974288;28;20175;-78
2020/12/27 08:31:51;;;;;;;0.57;0.40;;;5.20;99.90;;;;;;4971922;28;20285;-77
2020/12/27 08:34:25;;;;;;;0.70;0.50;;;5.20;99.90;;;;;;4972497;28;20167;-76
2020/12/27 08:36:58;;;;;;;0.63;0.45;;;5.20;99.90;;;;;;4974197;28;20219;-76
2020/12/27 08:39:35;;;;;;;0.70;0.40;;;5.30;99.90;;;;;;4973230;28;20182;-77
2020/12/27 08:42:21;;;;;;;0.80;0.60;;;5.30;99.90;;;;;;4970035;28;20217;-77
2020/12/27 08:44:54;;;;;;;0.75;0.55;;;5.20;99.90;;;;;;4972079;28;20503;-77
2020/12/27 08:47:46;;;;;;;0.60;0.50;;;5.20;99.90;;;;;;4971624;28;20300;-76
2020/12/27 08:50:24;;;;;;;0.77;0.60;;;5.20;99.90;;;;;;4970432;28;20177;-77
2020/12/27 08:52:55;;;;;;;1.30;0.60;;;5.20;99.90;;;;;;4970930;28;20289;-78
2020/12/27 08:55:27;;;;;;;1.10;0.50;;;5.20;99.90;;;;;;4973364;28;20666;-76
2020/12/27 08:58:03;;;;;;;0.85;0.50;;;5.20;99.90;;;;;;4973487;28;20217;-77
2020/12/27 09:00:35;;;;;;;0.93;0.40;;;5.30;99.90;;;;;;4970205;28;20238;-77
2020/12/27 09:03:03;;;;;;;0.70;0.40;;;5.30;99.90;;;;;;4972888;28;20592;-76
2020/12/27 09:05:32;;;;;;;0.80;0.50;;;5.30;99.90;;;;;;4955030;28;20218;-78
2020/12/27 09:07:58;;;;;;;0.90;0.52;;;5.30;99.90;;;;;;4973884;28;20167;-76
2020/12/27 09:10:27;;;;;;;0.57;0.53;;;5.30;99.90;;;;;;4957355;28;20574;-76
2020/12/27 09:13:07;;;;;;;2.15;0.68;;;5.30;99.90;;;;;;4958180;28;20431;-76
2020/12/27 09:15:38;;;;;;;0.50;0.40;;;5.30;99.90;;;;;;4940516;29;20220;-77
2020/12/27 09:18:12;;;;;;;1.00;0.40;;;5.40;99.90;;;;;;4953182;28;20218;-76
2020/12/27 09:20:40;;;;;;;0.63;0.40;;;5.40;99.90;;;;;;4960346;28;20215;-76
2020/12/27 09:23:14;;;;;;;0.90;0.45;;;5.40;99.90;;;;;;4953996;29;20192;-76
2020/12/27 09:25:41;;;;;;;1.63;0.70;;;5.40;99.90;;;;;;4958016;28;20225;-76
2020/12/27 09:28:21;;;;;;;1.88;0.60;;;5.40;99.90;;;;;;4973260;28;20187;-76
2020/12/27 09:31:03;;;;;;;0.70;0.40;;;5.50;99.90;;;;;;4972507;28;20253;-76
2020/12/27 09:33:30;;;;;;;0.70;0.50;;;5.50;99.90;;;;;;4971533;28;20195;-77
2020/12/27 09:36:00;;;;;;;0.60;0.40;;;5.50;99.90;;;;;;4965355;28;20306;-76
2020/12/27 09:38:28;;;;;;;1.00;0.60;;;5.60;99.90;;;;;;4962216;28;20581;-77
2020/12/27 09:41:17;;;;;;;1.58;0.77;;;5.50;99.90;;;;;;4971287;28;20720;-77
2020/12/27 09:44:04;;;;;;;0.50;0.30;;;5.50;99.90;;;;;;4957878;28;20685;-76
2020/12/27 09:46:49;;;;;;;0.82;0.68;;;5.50;99.90;;;;;;4953532;28;20216;-77
2020/12/27 09:49:23;;;;;;;2.05;0.40;;;5.60;99.90;;;;;;4953710;29;20331;-76
2020/12/27 09:52:02;;;;;;;0.77;0.40;;;5.50;99.90;;;;;;4955940;28;20210;-76
2020/12/27 09:54:30;;;;;;;1.00;0.50;;;5.50;99.90;;;;;;4974789;28;20286;-76
2020/12/27 09:56:56;;;;;;;0.85;0.40;;;5.50;99.90;;;;;;4977740;28;20697;-77
2020/12/27 09:59:22;;;;;;;0.80;0.57;;;5.50;99.90;;;;;;4972869;28;20175;-76
2020/12/27 10:01:48;;;;;;;1.20;0.57;;;5.50;99.90;;;;;;4974132;28;20458;-77
2020/12/27 10:04:13;;;;;;;0.90;0.60;;;5.50;99.90;;;;;;4973882;28;20254;-77
2020/12/27 10:06:39;;;;;;;0.73;0.70;;;5.50;99.90;;;;;;4974479;28;20265;-78
2020/12/27 10:09:05;;;;;;;2.30;0.50;;;5.50;99.90;;;;;;4961246;28;20200;-76
2020/12/27 10:11:31;;;;;;;0.50;0.40;;;5.50;99.90;;;;;;4958178;28;20290;-76
2020/12/27 10:13:56;;;;;;;0.80;0.45;;;5.50;99.90;;;;;;4972092;28;20203;-76
2020/12/27 10:16:22;;;;;;;0.80;0.80;;;5.60;99.90;;;;;;4975684;28;20580;-76
2020/12/27 10:18:48;;;;;;;0.87;0.50;;;5.60;99.90;;;;;;4970113;28;20593;-76
2020/12/27 10:21:14;;;;;;;1.20;0.40;;;5.60;99.90;;;;;;4975280;28;20287;-76
2020/12/27 10:23:39;;;;;;;1.40;0.70;;;5.60;99.90;;;;;;4943129;28;20188;-76
2020/12/27 10:26:06;;;;;;;0.60;0.57;;;5.60;99.90;;;;;;4957042;28;20443;-76
2020/12/27 10:28:34;;;;;;;1.05;0.63;;;5.60;99.90;;;;;;4959302;28;20180;-76
2020/12/27 10:31:00;;;;;;;1.05;0.38;;;5.60;99.90;;;;;;4957751;28;20215;-76
2020/12/27 10:33:26;;;;;;;0.77;0.60;;;5.60;99.90;;;;;;4971820;28;20553;-76
2020/12/27 10:35:52;;;;;;;1.20;0.90;;;5.60;99.90;;;;;;4971924;28;20263;-76
2020/12/27 10:38:17;;;;;;;0.60;0.47;;;5.50;99.90;;;;;;4968259;28;20477;-77
2020/12/27 10:40:43;;;;;;;0.73;0.53;;;5.50;99.90;;;;;;4975557;28;20226;-76
2020/12/27 10:43:09;;;;;;;0.70;0.50;;;5.50;99.90;;;;;;4975696;28;20179;-77
2020/12/27 10:45:34;;;;;;;0.70;0.53;;;5.40;99.90;;;;;;4975640;28;20585;-76
2020/12/27 10:48:00;;;;;;;0.70;0.57;;;5.50;99.90;;;;;;4977204;28;20202;-77
2020/12/27 10:50:26;;;;;;;0.60;0.50;;;5.40;99.90;;;;;;4975912;28;20266;-76
2020/12/27 10:52:51;;;;;;;0.60;0.40;;;5.40;99.90;;;;;;4975104;28;20748;-76
2020/12/27 10:55:17;;;;;;;0.70;0.50;;;5.50;99.90;;;;;;4974859;28;20203;-76
2020/12/27 10:57:43;;;;;;;1.13;0.50;;;5.50;99.90;;;;;;4970199;28;20203;-76
2020/12/27 11:00:08;;;;;;;0.73;0.50;;;5.50;99.90;;;;;;4954557;29;20210;-76
2020/12/27 11:02:34;;;;;;;0.80;0.50;;;5.50;99.90;;;;;;4970358;28;20231;-76
2020/12/27 11:05:00;;;;;;;0.70;0.40;;;5.50;99.90;;;;;;4947596;28;20211;-77
2020/12/27 11:07:26;;;;;;;0.60;0.43;;;5.50;99.90;;;;;;4960058;28;20171;-77
2020/12/27 11:09:51;;;;;;;0.80;0.50;;;5.60;99.90;;;;;;4975207;28;20508;-77
2020/12/27 11:12:17;;;;;;;0.70;0.70;;;5.60;99.90;;;;;;4974523;28;20191;-77
2020/12/27 11:14:43;;;;;;;0.50;0.50;;;5.60;99.90;;;;;;5001206;23;20250;-77
2020/12/27 11:17:09;;;;;;;0.50;0.40;;;5.60;99.90;;;;;;4975235;28;20592;-76
2020/12/27 11:19:34;;;;;;;1.13;0.80;;;5.60;99.90;;;;;;4995162;28;20170;-76
2020/12/27 11:22:00;;;;;;;0.70;0.50;;;5.60;99.90;;;;;;4989983;28;20570;-77
2020/12/27 11:24:25;;;;;;;0.87;0.63;;;5.60;99.90;;;;;;4975912;28;20262;-77
2020/12/27 11:26:54;;;;;;;0.80;0.50;;;5.60;99.90;;;;;;4974326;28;20211;-76
2020/12/27 11:29:20;;;;;;;0.95;0.63;;;5.70;99.90;;;;;;4973954;28;20190;-76
2020/12/27 11:31:46;;;;;;;0.50;0.40;;;5.70;99.90;;;;;;4964841;28;20215;-77
2020/12/27 11:34:12;;;;;;;1.73;0.50;;;5.70;99.90;;;;;;4939738;29;20176;-76
2020/12/27 11:36:37;;;;;;;1.13;0.50;;;5.80;99.90;;;;;;4971704;28;20760;-78
2020/12/27 11:39:03;;;;;;;1.80;0.50;;;5.70;99.90;;;;;;4961325;28;20182;-76
2020/12/27 11:41:29;;;;;;;2.08;0.60;;;5.80;99.90;;;;;;4972362;28;20262;-76
2020/12/27 11:43:55;;;;;;;1.67;1.57;;;5.70;99.90;;;;;;4975157;28;20637;-76
2020/12/27 11:46:27;;;;;;;0.80;0.60;;;5.70;99.90;;;;;;4973637;28;20230;-76
2020/12/27 11:48:52;;;;;;;0.95;0.60;;;5.70;99.90;;;;;;4975069;28;20179;-77
2020/12/27 11:51:18;;;;;;;0.70;0.50;;;5.80;99.90;;;;;;4974778;28;20577;-77
2020/12/27 11:53:44;;;;;;;0.80;0.53;;;5.70;99.90;;;;;;4958916;28;20195;-77
2020/12/27 11:56:16;;;;;;;2.00;0.60;;;5.70;99.90;;;;;;4956316;28;20211;-76
2020/12/27 11:58:43;;;;;;;1.35;0.77;;;5.70;99.90;;;;;;4975575;28;20465;-77
2020/12/27 12:01:13;;;;;;;1.45;0.63;;;5.70;99.90;;;;;;4971293;23;20365;-76
2020/12/27 12:03:39;;;;;;;0.80;0.60;;;5.70;99.90;;;;;;4972870;28;20195;-76
2020/12/27 12:06:04;;;;;;;2.47;0.70;;;5.70;99.90;;;;;;4974713;28;20528;-76
2020/12/27 12:08:31;;;;;;;0.80;0.53;;;5.70;99.90;;;;;;4975763;28;20179;-76
2020/12/27 12:10:57;;;;;;;1.50;0.65;;;5.70;99.90;;;;;;5019107;23;20476;-77
2020/12/27 12:13:23;;;;;;;1.17;0.60;;;5.70;99.90;;;;;;4991476;28;20178;-76
2020/12/27 12:15:48;;;;;;;1.57;0.60;;;5.70;99.90;;;;;;4984784;28;20516;-76
2020/12/27 12:18:14;;;;;;;1.50;0.63;;;5.60;99.90;;;;;;4994302;28;20492;-76
2020/12/27 12:20:42;;;;;;;0.93;0.70;;;5.60;99.90;;;;;;4978698;28;20234;-76
2020/12/27 12:23:09;;;;;;;0.80;0.40;;;5.60;99.90;;;;;;4994231;28;20186;-76
2020/12/27 12:25:35;;;;;;;0.80;0.43;;;5.60;99.90;;;;;;4973143;28;20206;-76
2020/12/27 12:28:01;;;;;;;0.50;0.40;;;5.60;99.90;;;;;;4992863;28;20167;-76
2020/12/27 12:30:27;;;;;;;1.30;0.73;;;5.60;99.90;;;;;;4975026;28;20288;-76
2020/12/27 12:32:52;;;;;;;0.70;0.50;;;5.60;99.90;;;;;;4992786;28;20186;-76
2020/12/27 12:35:18;;;;;;;1.13;0.50;;;5.60;99.90;;;;;;4962980;28;20504;-77
2020/12/27 12:37:44;;;;;;;0.80;0.50;;;5.60;99.90;;;;;;4974501;28;20198;-77
2020/12/27 12:40:11;;;;;;;1.40;0.60;;;5.60;99.90;;;;;;4977983;28;20222;-76
2020/12/27 12:42:37;;;;;;;1.40;0.43;;;5.60;99.90;;;;;;4973155;28;20482;-76
2020/12/27 12:45:08;;;;;;;1.10;0.40;;;5.50;99.90;;;;;;4957957;28;20163;-77
2020/12/27 12:47:34;;;;;;;0.98;0.50;;;5.60;99.90;;;;;;4974848;28;20171;-76
2020/12/27 12:50:00;;;;;;;0.60;0.43;;;5.50;99.90;;;;;;4967932;28;20273;-77
2020/12/27 12:52:26;;;;;;;0.60;0.50;;;5.50;99.90;;;;;;4976518;28;20442;-77
2020/12/27 12:54:52;;;;;;;0.60;0.50;;;5.50;99.90;;;;;;4975715;28;20667;-77
2020/12/27 12:57:17;;;;;;;0.73;0.50;;;5.40;99.90;;;;;;4992615;28;20194;-77
2020/12/27 12:59:43;;;;;;;0.70;0.50;;;5.40;99.90;;;;;;4984748;28;20254;-78
2020/12/27 13:02:09;;;;;;;0.60;0.50;;;5.30;99.90;;;;;;4991286;28;20681;-78